createdAt,value
2022-11-07T00:00:27.698Z,100218.69
2022-11-07T00:02:54.107Z,100198.63
2022-11-07T00:05:20.687Z,100222.84
2022-11-07T00:07:47.066Z,100240.53
2022-11-07T00:10:13.496Z,100229.81
2022-11-07T00:12:39.805Z,100219.63
2022-11-07T00:15:06.561Z,100251.97
2022-11-07T00:17:32.968Z,100193.06
2022-11-07T00:19:59.364Z,100209.81
2022-11-07T00:22:25.937Z,100215.25
2022-11-07T00:24:52.504Z,100214.94
2022-11-07T00:27:18.963Z,100252.53
2022-11-07T00:29:45.493Z,100197.69
2022-11-07T00:32:11.832Z,100200.03
2022-11-07T00:34:38.229Z,100227.25
2022-11-07T00:37:04.605Z,100245.66
2022-11-07T00:39:30.972Z,100221.13
2022-11-07T00:41:57.305Z,100241.72
2022-11-07T00:44:23.626Z,100191.63
2022-11-07T00:46:49.942Z,100223.41
2022-11-07T00:49:16.332Z,100197.19
2022-11-07T00:51:42.765Z,100226.59
2022-11-07T00:54:09.121Z,100225.63
2022-11-07T00:56:35.629Z,100180.44
2022-11-07T00:59:02.042Z,100202.22
2022-11-07T01:01:31.385Z,100268.69
2022-11-07T01:04:16.833Z,100271.59
2022-11-07T01:06:45.247Z,100243.34
2022-11-07T01:09:18.513Z,100243.19
2022-11-07T01:11:45.951Z,100275.41
2022-11-07T01:14:16.336Z,100258.75
2022-11-07T01:16:42.925Z,100251.22
2022-11-07T01:19:09.832Z,100269.03
2022-11-07T01:21:41.106Z,100258.91
2022-11-07T01:24:08.928Z,100235.84
2022-11-07T01:26:37.412Z,100267.22
2022-11-07T01:29:04.312Z,100216.09
2022-11-07T01:31:33.535Z,100251.59
2022-11-07T01:34:00.742Z,100227.44
2022-11-07T01:36:27.729Z,100242.44
2022-11-07T01:38:54.663Z,100246.75
2022-11-07T01:41:25.394Z,100211.59
2022-11-07T01:43:56.125Z,100246.34
2022-11-07T01:46:30.586Z,100216.38
2022-11-07T01:49:12.776Z,100240.97
2022-11-07T01:51:43.844Z,100240.75
2022-11-07T01:54:13.163Z,100167.75
2022-11-07T01:56:43.105Z,100208.72
2022-11-07T01:59:14.031Z,100197.69
2022-11-07T02:01:41.339Z,100221.81
2022-11-07T02:04:09.371Z,100207.47
2022-11-07T02:06:47.855Z,100231.84
2022-11-07T02:09:14.673Z,100215.88
2022-11-07T02:11:41.085Z,100204.34
2022-11-07T02:14:07.720Z,100245.88
2022-11-07T02:16:37.173Z,100235.06
2022-11-07T02:19:10.663Z,100260.88
2022-11-07T02:21:45.973Z,100260.34
2022-11-07T02:24:38.522Z,100262.81
2022-11-07T02:27:11.434Z,100264.63
2022-11-07T02:29:40.170Z,100247.28
2022-11-07T02:32:09.129Z,100212.31
2022-11-07T02:34:35.547Z,100235.50
2022-11-07T02:37:05.106Z,100207.16
2022-11-07T02:39:31.491Z,100226.97
2022-11-07T02:42:00.826Z,100227.66
2022-11-07T02:44:29.473Z,100261.28
2022-11-07T02:46:56.599Z,100200.13
2022-11-07T02:49:22.984Z,100214.94
2022-11-07T02:51:49.284Z,100201.22
2022-11-07T02:54:15.586Z,100243.41
2022-11-07T02:56:41.957Z,100242.56
2022-11-07T02:59:08.252Z,100220.09
2022-11-07T03:01:34.696Z,100201.50
2022-11-07T03:04:01.092Z,100237.19
2022-11-07T03:06:27.449Z,100233.44
2022-11-07T03:08:53.820Z,100229.44
2022-11-07T03:11:20.530Z,100208.78
2022-11-07T03:13:48.229Z,100273.22
2022-11-07T03:16:15.749Z,100259.59
2022-11-07T03:18:42.183Z,100232.81
2022-11-07T03:21:08.602Z,100251.91
2022-11-07T03:23:36.127Z,100285.94
2022-11-07T03:26:03.527Z,100264.09
2022-11-07T03:28:30.030Z,100252.81
2022-11-07T03:31:00.634Z,100285.19
2022-11-07T03:33:28.882Z,100252.41
2022-11-07T03:35:55.208Z,100283.22
2022-11-07T03:38:21.525Z,100234.53
2022-11-07T03:40:47.934Z,100168.91
2022-11-07T03:43:14.636Z,100219.41
2022-11-07T03:45:41.633Z,100258.56
2022-11-07T03:48:07.993Z,100169.03
2022-11-07T03:50:34.344Z,100270.09
2022-11-07T03:53:00.691Z,100257.88
2022-11-07T03:55:27.065Z,100257.88
2022-11-07T03:57:53.419Z,100251.72
2022-11-07T04:00:19.827Z,100276.41
2022-11-07T04:02:46.443Z,100236.88
2022-11-07T04:05:13.284Z,100268.16
2022-11-07T04:07:39.694Z,100264.75
2022-11-07T04:10:06.305Z,100294.41
2022-11-07T04:12:51.126Z,100233.91
2022-11-07T04:15:36.523Z,100275.16
2022-11-07T04:18:02.921Z,100266.31
2022-11-07T04:20:29.433Z,100267.19
2022-11-07T04:22:55.768Z,100265.25
2022-11-07T04:25:42.025Z,100255.25
2022-11-07T04:28:08.413Z,100271.16
2022-11-07T04:30:34.944Z,100264.41
2022-11-07T04:33:02.388Z,100248.59
2022-11-07T04:35:31.511Z,100250.59
2022-11-07T04:37:59.042Z,100226.97
2022-11-07T04:40:25.743Z,100215.25
2022-11-07T04:42:52.200Z,100196.28
2022-11-07T04:45:18.730Z,100252.06
2022-11-07T04:47:45.558Z,100163.78
2022-11-07T04:50:14.536Z,100281.69
2022-11-07T04:52:40.970Z,100244.16
2022-11-07T04:55:08.782Z,100285.72
2022-11-07T04:57:35.117Z,100223.22
2022-11-07T05:00:02.475Z,100289.63
2022-11-07T05:02:29.020Z,100288.84
2022-11-07T05:04:55.474Z,100179.72
2022-11-07T05:07:22.001Z,100267.34
2022-11-07T05:09:48.362Z,100284.81
2022-11-07T05:12:14.886Z,100268.41
2022-11-07T05:14:41.351Z,100277.78
2022-11-07T05:17:07.761Z,100219.25
2022-11-07T05:19:34.267Z,100260.56
2022-11-07T05:22:19.380Z,100275.66
2022-11-07T05:24:45.760Z,100278.72
2022-11-07T05:27:19.492Z,100261.97
2022-11-07T05:29:45.922Z,100297.03
2022-11-07T05:32:12.653Z,100272.34
2022-11-07T05:34:39.200Z,100247.16
2022-11-07T05:37:09.532Z,100261.03
2022-11-07T05:39:36.679Z,100282.28
2022-11-07T05:42:04.031Z,100301.28
2022-11-07T05:44:31.200Z,100280.28
2022-11-07T05:46:58.102Z,100240.41
2022-11-07T05:49:24.921Z,100287.13
2022-11-07T05:51:51.893Z,100289.13
2022-11-07T05:54:18.268Z,100275.31
2022-11-07T05:56:44.851Z,100292.34
2022-11-07T05:59:11.373Z,100242.53
2022-11-07T06:01:37.943Z,100298.53
2022-11-07T06:04:05.382Z,100265.94
2022-11-07T06:06:31.781Z,100302.88
2022-11-07T06:08:58.425Z,100261.72
2022-11-07T06:11:24.824Z,100245.66
2022-11-07T06:13:54.038Z,100324.47
2022-11-07T06:16:20.454Z,100300.63
2022-11-07T06:18:46.807Z,100316.31
2022-11-07T06:21:13.926Z,100281.19
2022-11-07T06:23:40.351Z,100266.81
2022-11-07T06:26:07.006Z,100273.16
2022-11-07T06:28:33.449Z,100320.81
2022-11-07T06:31:03.851Z,100286.09
2022-11-07T06:33:30.217Z,100286.72
2022-11-07T06:36:08.329Z,100296.28
2022-11-07T06:38:35.301Z,100268.97
2022-11-07T06:41:10.854Z,100329.41
2022-11-07T06:43:37.797Z,100301.03
2022-11-07T06:46:07.000Z,100329.78
2022-11-07T06:48:33.874Z,100280.22
2022-11-07T06:51:02.006Z,100321.16
2022-11-07T06:53:28.855Z,100314.75
2022-11-07T06:55:55.974Z,100307.84
2022-11-07T06:58:22.888Z,100313.53
2022-11-07T07:00:49.249Z,100310.41
2022-11-07T07:03:15.857Z,100298.09
2022-11-07T07:05:42.770Z,100318.19
2022-11-07T07:08:11.144Z,100328.34
2022-11-07T07:10:45.111Z,100341.53
2022-11-07T07:13:14.689Z,100319.31
2022-11-07T07:15:51.110Z,100313.38
2022-11-07T07:18:18.111Z,100309.63
2022-11-07T07:20:45.223Z,100350.28
2022-11-07T07:23:11.542Z,100332.47
2022-11-07T07:25:37.860Z,100355.78
2022-11-07T07:28:04.178Z,100365.28
2022-11-07T07:30:30.570Z,100344.09
2022-11-07T07:32:56.981Z,100351.66
2022-11-07T07:35:23.269Z,100347.97
2022-11-07T07:37:53.089Z,100376.63
2022-11-07T07:40:20.592Z,100376.84
2022-11-07T07:42:47.026Z,100356.22
2022-11-07T07:45:14.854Z,100382.59
2022-11-07T07:47:41.730Z,100370.69
2022-11-07T07:50:10.652Z,100376.63
2022-11-07T07:52:37.048Z,100351.78
2022-11-07T07:55:03.854Z,100394.59
2022-11-07T07:57:30.181Z,100368.03
2022-11-07T07:59:56.932Z,100376.97
2022-11-07T08:02:23.306Z,100344.13
2022-11-07T08:04:49.716Z,100380.22
2022-11-07T08:07:16.246Z,100343.88
2022-11-07T08:09:42.565Z,100359.47
2022-11-07T08:12:09.091Z,100371.31
2022-11-07T08:14:35.551Z,100376.75
2022-11-07T08:17:02.360Z,100409.06
2022-11-07T08:19:28.672Z,100416.06
2022-11-07T08:21:55.111Z,100354.09
2022-11-07T08:24:21.423Z,100407.09
2022-11-07T08:26:47.712Z,100419.31
2022-11-07T08:29:14.055Z,100383.34
2022-11-07T08:31:40.468Z,100417.00
2022-11-07T08:34:06.853Z,100414.94
2022-11-07T08:36:33.668Z,100381.41
2022-11-07T08:39:00.010Z,100410.16
2022-11-07T08:41:26.397Z,100380.63
2022-11-07T08:43:52.736Z,100409.91
2022-11-07T08:46:19.081Z,100374.31
2022-11-07T08:48:45.413Z,100367.00
2022-11-07T08:51:11.714Z,100387.69
2022-11-07T08:53:38.078Z,100388.41
2022-11-07T08:56:06.542Z,100435.47
2022-11-07T08:58:33.681Z,100442.22
2022-11-07T09:01:00.851Z,100430.63
2022-11-07T09:06:13.749Z,100429.84
2022-11-07T09:08:46.717Z,100424.00
2022-11-07T09:11:15.510Z,100414.56
2022-11-07T09:13:41.962Z,100417.75
2022-11-07T09:16:08.266Z,100395.22
2022-11-07T09:18:34.634Z,100372.69
2022-11-07T09:21:00.988Z,100457.16
2022-11-07T09:23:27.789Z,100424.84
2022-11-07T09:25:54.251Z,100419.19
2022-11-07T09:28:20.595Z,100458.16
2022-11-07T09:30:46.952Z,100379.78
2022-11-07T09:33:13.594Z,100439.28
2022-11-07T09:35:40.102Z,100457.75
2022-11-07T09:38:06.404Z,100449.72
2022-11-07T09:41:05.276Z,100481.53
2022-11-07T09:43:49.669Z,100472.81
2022-11-07T09:46:43.037Z,100471.94
2022-11-07T09:49:21.793Z,100469.03
2022-11-07T09:51:56.512Z,100464.00
2022-11-07T09:54:27.779Z,100477.22
2022-11-07T09:56:57.926Z,100458.88
2022-11-07T09:59:29.761Z,100479.88
2022-11-07T10:01:56.206Z,100449.06
2022-11-07T10:04:26.102Z,100490.28
2022-11-07T10:07:00.144Z,100447.38
2022-11-07T10:09:52.590Z,100452.25
2022-11-07T10:12:40.434Z,100449.50
2022-11-07T10:15:26.709Z,100481.03
2022-11-07T10:18:16.368Z,100460.72
2022-11-07T10:21:36.361Z,100478.59
2022-11-07T10:24:23.122Z,100487.06
2022-11-07T10:26:49.488Z,100455.34
2022-11-07T10:29:21.598Z,100453.75
2022-11-07T10:31:56.030Z,100452.03
2022-11-07T10:34:37.726Z,100445.91
2022-11-07T10:37:04.583Z,100494.13
2022-11-07T10:39:32.146Z,100483.59
2022-11-07T10:42:09.315Z,100440.75
2022-11-07T10:44:38.382Z,100453.50
2022-11-07T10:47:18.152Z,100471.00
2022-11-07T10:50:16.849Z,100470.63
2022-11-07T10:52:55.709Z,100483.06
2022-11-07T10:55:22.837Z,100427.84
2022-11-07T10:58:05.708Z,100495.69
2022-11-07T11:00:34.334Z,100489.22
2022-11-07T11:03:00.729Z,100457.78
2022-11-07T11:05:43.344Z,100473.47
2022-11-07T11:08:21.087Z,100491.16
2022-11-07T11:10:48.278Z,100508.16
2022-11-07T11:13:32.984Z,100445.78
2022-11-07T11:16:08.214Z,100493.53
2022-11-07T11:18:34.533Z,100459.06
2022-11-07T11:21:03.057Z,100468.72
2022-11-07T11:23:31.766Z,100497.88
2022-11-07T11:26:01.029Z,100491.50
2022-11-07T11:28:36.760Z,100477.16
2022-11-07T11:31:08.473Z,100497.84
2022-11-07T11:33:42.242Z,100496.06
2022-11-07T11:36:25.189Z,100465.16
2022-11-07T11:38:54.545Z,100470.78
2022-11-07T11:41:37.893Z,100482.34
2022-11-07T11:44:23.543Z,100432.13
2022-11-07T11:47:02.268Z,100481.34
2022-11-07T11:49:30.522Z,100451.66
2022-11-07T11:52:03.388Z,100480.78
2022-11-07T11:54:29.707Z,100456.50
2022-11-07T11:57:01.085Z,100474.47
2022-11-07T11:59:45.091Z,100447.22
2022-11-07T12:02:17.488Z,100468.34
2022-11-07T12:04:55.960Z,100442.81
2022-11-07T12:07:58.951Z,100460.34
2022-11-07T12:10:27.963Z,100464.41
2022-11-07T12:13:06.497Z,100458.31
2022-11-07T12:15:40.968Z,100443.06
2022-11-07T12:18:24.740Z,100423.31
2022-11-07T12:21:05.520Z,100456.47
2022-11-07T12:23:49.881Z,100458.91
2022-11-07T12:26:35.832Z,100439.63
2022-11-07T12:29:22.791Z,100456.06
2022-11-07T12:32:19.826Z,100455.78
2022-11-07T12:35:15.270Z,100399.88
2022-11-07T12:38:10.949Z,100410.59
2022-11-07T12:40:59.983Z,100445.78
2022-11-07T12:43:42.029Z,100443.25
2022-11-07T12:46:19.132Z,100469.56
2022-11-07T12:49:00.016Z,100472.16
2022-11-07T12:51:54.300Z,100457.72
2022-11-07T12:54:39.513Z,100476.41
2022-11-07T12:57:20.992Z,100482.91
2022-11-07T12:59:52.188Z,100483.56
2022-11-07T13:02:30.372Z,100462.00
2022-11-07T13:05:15.360Z,100466.34
2022-11-07T13:07:57.119Z,100465.75
2022-11-07T13:10:34.963Z,100461.22
2022-11-07T13:13:05.038Z,100466.63
2022-11-07T13:15:53.788Z,100461.91
2022-11-07T13:18:27.934Z,100406.44
2022-11-07T13:21:01.221Z,100425.38
2022-11-07T13:23:28.633Z,100446.63
2022-11-07T13:26:14.842Z,100422.41
2022-11-07T13:28:56.397Z,100468.06
2022-11-07T13:31:45.461Z,100458.19
2022-11-07T13:34:17.994Z,100459.50
2022-11-07T13:36:47.017Z,100467.19
2022-11-07T13:39:14.726Z,100456.59
2022-11-07T13:41:44.374Z,100454.78
2022-11-07T13:44:17.208Z,100450.28
2022-11-07T13:46:49.137Z,100456.59
2022-11-07T13:49:26.845Z,100438.22
2022-11-07T13:51:56.477Z,100433.03
2022-11-07T13:54:28.598Z,100446.63
2022-11-07T13:57:05.085Z,100436.81
2022-11-07T13:59:43.883Z,100451.19
2022-11-07T14:02:30.317Z,100444.34
2022-11-07T14:05:20.804Z,100415.94
2022-11-07T14:08:04.726Z,100447.22
2022-11-07T14:10:38.696Z,100461.78
2022-11-07T14:13:07.928Z,100449.72
2022-11-07T14:15:36.048Z,100451.75
2022-11-07T14:18:03.635Z,100424.69
2022-11-07T14:20:30.250Z,100414.34
2022-11-07T14:23:00.538Z,100448.50
2022-11-07T14:25:32.604Z,100434.34
2022-11-07T14:28:00.146Z,100427.66
2022-11-07T14:30:29.108Z,100448.16
2022-11-07T14:32:58.708Z,100453.34
2022-11-07T14:35:35.007Z,100450.41
2022-11-07T14:38:15.114Z,100423.16
2022-11-07T14:40:42.571Z,100437.34
2022-11-07T14:43:15.538Z,100448.50
2022-11-07T14:46:11.398Z,100454.22
2022-11-07T14:48:32.220Z,100432.00
2022-11-07T14:50:59.616Z,100417.03
2022-11-07T14:53:32.086Z,100446.34
2022-11-07T14:56:03.678Z,100417.81
2022-11-07T14:58:31.383Z,100447.06
2022-11-07T15:01:10.817Z,100429.84
2022-11-07T15:03:49.813Z,100436.50
2022-11-07T15:06:28.168Z,100431.22
2022-11-07T15:08:57.501Z,100407.41
2022-11-07T15:11:36.165Z,100450.03
2022-11-07T15:14:05.897Z,100448.34
2022-11-07T15:16:37.388Z,100455.19
2022-11-07T15:19:06.078Z,100434.78
2022-11-07T15:21:37.220Z,100453.63
2022-11-07T15:24:34.828Z,100451.47
2022-11-07T15:27:16.430Z,100459.19
2022-11-07T15:29:57.883Z,100416.09
2022-11-07T15:32:28.456Z,100424.66
2022-11-07T15:35:23.042Z,100439.59
2022-11-07T15:37:57.470Z,100451.06
2022-11-07T15:40:26.346Z,100458.16
2022-11-07T15:42:52.989Z,100460.41
2022-11-07T15:45:20.264Z,100422.56
2022-11-07T15:47:47.093Z,100459.34
2022-11-07T15:50:20.864Z,100467.22
2022-11-07T15:52:48.608Z,100461.69
2022-11-07T15:55:17.628Z,100463.50
2022-11-07T15:57:46.880Z,100446.22
2022-11-07T16:00:19.316Z,100447.50
2022-11-07T16:02:46.242Z,100440.50
2022-11-07T16:05:13.997Z,100479.47
2022-11-07T16:07:42.545Z,100461.09
2022-11-07T16:10:24.934Z,100424.69
2022-11-07T16:12:52.011Z,100432.25
2022-11-07T16:15:21.429Z,100461.28
2022-11-07T16:17:48.297Z,100481.19
2022-11-07T16:20:17.106Z,100444.75
2022-11-07T16:22:45.120Z,100460.03
2022-11-07T16:25:21.323Z,100440.69
2022-11-07T16:27:59.035Z,100472.63
2022-11-07T16:30:25.682Z,100437.91
2022-11-07T16:32:52.035Z,100447.09
2022-11-07T16:35:18.352Z,100478.84
2022-11-07T16:37:44.660Z,100439.97
2022-11-07T16:40:14.132Z,100462.94
2022-11-07T16:42:40.586Z,100464.38
2022-11-07T16:45:07.705Z,100461.09
2022-11-07T16:47:39.337Z,100459.09
2022-11-07T16:50:06.618Z,100476.19
2022-11-07T16:52:33.563Z,100470.50
2022-11-07T16:54:59.953Z,100467.81
2022-11-07T16:57:26.332Z,100452.38
2022-11-07T16:59:52.733Z,100460.16
2022-11-07T17:02:24.821Z,100478.66
2022-11-07T17:04:53.389Z,100472.91
2022-11-07T17:07:22.717Z,100473.78
2022-11-07T17:09:49.603Z,100463.50
2022-11-07T17:12:24.814Z,100451.78
2022-11-07T17:14:51.720Z,100491.63
2022-11-07T17:17:19.054Z,100492.50
2022-11-07T17:19:45.567Z,100460.22
2022-11-07T17:22:13.464Z,100485.41
2022-11-07T17:24:40.361Z,100491.75
2022-11-07T17:27:25.424Z,100495.47
2022-11-07T17:29:53.318Z,100459.25
2022-11-07T17:32:20.317Z,100386.00
2022-11-07T17:34:54.989Z,100478.00
2022-11-07T17:37:33.118Z,100451.22
2022-11-07T17:39:59.412Z,100497.47
2022-11-07T17:42:25.728Z,100488.97
2022-11-07T17:44:52.066Z,100489.22
2022-11-07T17:47:28.836Z,100503.19
2022-11-07T17:49:55.668Z,100446.38
2022-11-07T17:52:22.308Z,100461.22
2022-11-07T17:54:48.797Z,100488.69
2022-11-07T17:57:15.190Z,100468.22
2022-11-07T17:59:45.740Z,100452.56
2022-11-07T18:02:18.622Z,100490.31
2022-11-07T18:04:45.997Z,100461.50
2022-11-07T18:07:12.790Z,100467.06
2022-11-07T18:09:42.915Z,100493.03
2022-11-07T18:12:10.558Z,100477.72
2022-11-07T18:14:37.390Z,100486.63
2022-11-07T18:17:04.327Z,100489.34
2022-11-07T18:19:30.871Z,100457.94
2022-11-07T18:21:57.192Z,100471.00
2022-11-07T18:24:24.189Z,100453.19
2022-11-07T18:26:51.782Z,100483.94
2022-11-07T18:29:18.698Z,100478.50
2022-11-07T18:31:47.291Z,100448.22
2022-11-07T18:34:14.273Z,100492.78
2022-11-07T18:36:42.340Z,100488.19
2022-11-07T18:39:15.515Z,100477.22
2022-11-07T18:41:42.347Z,100468.38
2022-11-07T18:44:10.335Z,100476.16
2022-11-07T18:46:37.263Z,100466.94
2022-11-07T18:49:05.118Z,100497.31
2022-11-07T18:51:32.477Z,100452.81
2022-11-07T18:54:01.484Z,100491.97
2022-11-07T18:56:28.282Z,100493.19
2022-11-07T18:58:55.682Z,100470.34
2022-11-07T19:01:26.449Z,100438.91
2022-11-07T19:03:53.701Z,100492.91
2022-11-07T19:06:22.089Z,100493.84
2022-11-07T19:08:49.004Z,100478.91
2022-11-07T19:11:18.159Z,100472.22
2022-11-07T19:13:45.600Z,100498.69
2022-11-07T19:16:16.963Z,100466.22
2022-11-07T19:18:49.151Z,100470.06
2022-11-07T19:21:19.690Z,100403.94
2022-11-07T19:23:46.990Z,100508.00
2022-11-07T19:26:13.852Z,100502.59
2022-11-07T19:28:40.818Z,100488.72
2022-11-07T19:31:09.877Z,100506.50
2022-11-07T19:33:36.801Z,100488.19
2022-11-07T19:36:06.636Z,100450.88
2022-11-07T19:38:33.716Z,100468.34
2022-11-07T19:41:05.161Z,100504.81
2022-11-07T19:43:31.885Z,100494.97
2022-11-07T19:45:59.117Z,100513.88
2022-11-07T19:48:25.633Z,100505.19
2022-11-07T19:50:52.065Z,100438.69
2022-11-07T19:53:18.802Z,100482.19
2022-11-07T19:55:45.323Z,100493.38
2022-11-07T19:58:11.662Z,100475.22
2022-11-07T20:00:38.110Z,100488.63
2022-11-07T20:03:09.665Z,100500.81
2022-11-07T20:05:43.809Z,100493.78
2022-11-07T20:08:15.831Z,100488.09
2022-11-07T20:10:46.681Z,100481.34
2022-11-07T20:13:13.031Z,100460.69
2022-11-07T20:15:39.819Z,100501.53
2022-11-07T20:18:06.289Z,100494.81
2022-11-07T20:20:32.604Z,100428.13
2022-11-07T20:23:00.230Z,100485.84
2022-11-07T20:25:26.716Z,100511.28
2022-11-07T20:27:53.052Z,100509.19
2022-11-07T20:30:19.729Z,100436.38
2022-11-07T20:32:46.578Z,100470.31
2022-11-07T20:35:12.899Z,100471.09
2022-11-07T20:37:39.314Z,100454.88
2022-11-07T20:40:06.322Z,100493.53
2022-11-07T20:42:32.742Z,100428.66
2022-11-07T20:44:59.136Z,100461.47
2022-11-07T20:47:25.510Z,100472.53
2022-11-07T20:49:51.847Z,100506.81
2022-11-07T20:52:18.348Z,100465.25
2022-11-07T20:54:44.766Z,100524.44
2022-11-07T20:57:11.122Z,100479.59
2022-11-07T20:59:37.595Z,100496.03
2022-11-07T21:02:04.353Z,100501.16
2022-11-07T21:04:44.412Z,100483.88
2022-11-07T21:07:19.537Z,100498.13
2022-11-07T21:09:46.262Z,100464.13
2022-11-07T21:12:13.088Z,100520.41
2022-11-07T21:14:41.561Z,100490.25
2022-11-07T21:17:09.067Z,100514.28
2022-11-07T21:19:35.365Z,100512.22
2022-11-07T21:22:01.676Z,100513.88
2022-11-07T21:24:31.630Z,100477.88
2022-11-07T21:26:58.524Z,100494.56
2022-11-07T21:29:29.453Z,100513.13
2022-11-07T21:31:56.025Z,100511.91
2022-11-07T21:34:22.349Z,100512.63
2022-11-07T21:36:48.686Z,100498.19
2022-11-07T21:39:16.194Z,100500.88
2022-11-07T21:41:42.600Z,100480.19
2022-11-07T21:44:11.163Z,100476.78
2022-11-07T21:46:37.756Z,100463.00
2022-11-07T21:49:06.014Z,100483.63
2022-11-07T21:51:34.222Z,100495.75
2022-11-07T21:54:01.433Z,100494.88
2022-11-07T21:56:30.369Z,100493.25
2022-11-07T21:59:00.137Z,100466.75
2022-11-07T22:01:28.017Z,100491.25
2022-11-07T22:04:11.188Z,100490.88
2022-11-07T22:06:40.870Z,100485.22
2022-11-07T22:09:08.923Z,100487.06
2022-11-07T22:11:35.511Z,100475.06
2022-11-07T22:14:02.579Z,100477.16
2022-11-07T22:16:29.188Z,100487.19
2022-11-07T22:18:55.647Z,100476.03
2022-11-07T22:21:23.306Z,100350.13
2022-11-07T22:23:50.480Z,100474.28
2022-11-07T22:26:20.151Z,100469.03
2022-11-07T22:28:47.368Z,100413.13
2022-11-07T22:31:32.043Z,100444.88
2022-11-07T22:33:59.135Z,100456.06
2022-11-07T22:36:25.898Z,100437.47
2022-11-07T22:38:52.282Z,100411.94
2022-11-07T22:41:24.048Z,100461.16
2022-11-07T22:43:51.137Z,100457.22
2022-11-07T22:46:20.572Z,100422.13
2022-11-07T22:48:48.622Z,100427.38
2022-11-07T22:51:18.061Z,100437.91
2022-11-07T22:53:44.392Z,100422.34
2022-11-07T22:56:13.205Z,100429.47
2022-11-07T22:58:40.157Z,100453.47
2022-11-07T23:01:13.300Z,100458.97
2022-11-07T23:03:39.630Z,100418.47
2022-11-07T23:06:06.071Z,100391.78
2022-11-07T23:08:36.269Z,100412.56
2022-11-07T23:14:00.266Z,100399.13
2022-11-07T23:16:37.372Z,100439.34
2022-11-07T23:19:06.757Z,100387.25
2022-11-07T23:21:33.726Z,100408.56
2022-11-07T23:24:00.904Z,100410.28
2022-11-07T23:26:35.218Z,100412.19
2022-11-07T23:29:09.055Z,100440.63
2022-11-07T23:31:37.220Z,100436.41
2022-11-07T23:34:04.040Z,100443.34
2022-11-07T23:36:30.359Z,100398.69
2022-11-07T23:38:56.786Z,100426.66
2022-11-07T23:41:23.114Z,100390.41
2022-11-07T23:43:52.444Z,100440.25
2022-11-07T23:46:37.768Z,100401.44
2022-11-07T23:49:22.446Z,100426.16
2022-11-07T23:51:48.680Z,100428.28
2022-11-07T23:54:33.581Z,100407.19
2022-11-07T23:57:00.583Z,100425.03
2022-11-07T23:59:45.714Z,100425.53
